sensor_id;sensor_type;location;lat;lon;timestamp;temperature;humidity
5639;DHT22;2841;44.526;11.360;2022-08-03T00:01:40;26.00;70.80
5639;DHT22;2841;44.526;11.360;2022-08-03T00:04:08;26.00;70.80
5639;DHT22;2841;44.526;11.360;2022-08-03T00:06:36;26.00;70.80
5639;DHT22;2841;44.526;11.360;2022-08-03T00:09:04;26.10;70.90
5639;DHT22;2841;44.526;11.360;2022-08-03T00:11:31;26.00;71.10
5639;DHT22;2841;44.526;11.360;2022-08-03T00:13:59;25.90;71.20
5639;DHT22;2841;44.526;11.360;2022-08-03T00:16:27;25.90;71.40
5639;DHT22;2841;44.526;11.360;2022-08-03T00:18:54;25.90;71.60
5639;DHT22;2841;44.526;11.360;2022-08-03T00:21:21;25.90;71.80
5639;DHT22;2841;44.526;11.360;2022-08-03T00:23:48;25.80;71.80
5639;DHT22;2841;44.526;11.360;2022-08-03T00:26:16;25.90;72.00
5639;DHT22;2841;44.526;11.360;2022-08-03T00:28:43;25.90;72.00
5639;DHT22;2841;44.526;11.360;2022-08-03T00:31:10;25.80;72.10
5639;DHT22;2841;44.526;11.360;2022-08-03T00:33:38;25.90;72.20
5639;DHT22;2841;44.526;11.360;2022-08-03T00:36:05;25.80;72.30
5639;DHT22;2841;44.526;11.360;2022-08-03T00:38:32;25.80;72.40
5639;DHT22;2841;44.526;11.360;2022-08-03T00:40:59;25.80;72.60
5639;DHT22;2841;44.526;11.360;2022-08-03T00:43:26;25.80;72.60
5639;DHT22;2841;44.526;11.360;2022-08-03T00:45:53;25.90;72.70
5639;DHT22;2841;44.526;11.360;2022-08-03T00:48:39;25.80;72.60
5639;DHT22;2841;44.526;11.360;2022-08-03T00:51:07;25.80;72.60
5639;DHT22;2841;44.526;11.360;2022-08-03T00:53:34;25.80;72.60
5639;DHT22;2841;44.526;11.360;2022-08-03T00:56:01;25.80;72.60
5639;DHT22;2841;44.526;11.360;2022-08-03T00:58:28;25.70;72.50
5639;DHT22;2841;44.526;11.360;2022-08-03T01:00:55;25.70;72.70
5639;DHT22;2841;44.526;11.360;2022-08-03T01:03:22;25.70;72.70
5639;DHT22;2841;44.526;11.360;2022-08-03T01:05:54;25.70;72.60
5639;DHT22;2841;44.526;11.360;2022-08-03T01:08:30;25.80;72.60
5639;DHT22;2841;44.526;11.360;2022-08-03T01:11:04;25.80;72.50
5639;DHT22;2841;44.526;11.360;2022-08-03T01:13:46;25.80;72.40
5639;DHT22;2841;44.526;11.360;2022-08-03T01:16:18;25.70;72.40
5639;DHT22;2841;44.526;11.360;2022-08-03T01:19:01;25.70;72.50
5639;DHT22;2841;44.526;11.360;2022-08-03T01:21:39;25.70;72.50
5639;DHT22;2841;44.526;11.360;2022-08-03T01:24:21;25.70;72.40
5639;DHT22;2841;44.526;11.360;2022-08-03T01:27:02;25.70;72.30
5639;DHT22;2841;44.526;11.360;2022-08-03T01:29:49;25.70;72.30
5639;DHT22;2841;44.526;11.360;2022-08-03T01:32:20;25.60;72.90
5639;DHT22;2841;44.526;11.360;2022-08-03T01:34:51;25.60;72.40
5639;DHT22;2841;44.526;11.360;2022-08-03T01:37:25;25.70;72.40
5639;DHT22;2841;44.526;11.360;2022-08-03T01:39:55;25.70;72.30
5639;DHT22;2841;44.526;11.360;2022-08-03T01:42:24;25.60;72.20
5639;DHT22;2841;44.526;11.360;2022-08-03T01:44:54;25.60;72.20
5639;DHT22;2841;44.526;11.360;2022-08-03T01:47:23;25.70;72.20
5639;DHT22;2841;44.526;11.360;2022-08-03T01:49:51;25.60;72.20
5639;DHT22;2841;44.526;11.360;2022-08-03T01:52:19;25.60;72.30
5639;DHT22;2841;44.526;11.360;2022-08-03T01:54:50;25.60;72.30
5639;DHT22;2841;44.526;11.360;2022-08-03T01:57:18;25.60;72.30
5639;DHT22;2841;44.526;11.360;2022-08-03T01:59:48;25.60;72.40
5639;DHT22;2841;44.526;11.360;2022-08-03T02:02:18;25.60;72.20
5639;DHT22;2841;44.526;11.360;2022-08-03T02:04:46;25.50;72.10
5639;DHT22;2841;44.526;11.360;2022-08-03T02:07:14;25.50;72.10
5639;DHT22;2841;44.526;11.360;2022-08-03T02:09:44;25.50;72.30
5639;DHT22;2841;44.526;11.360;2022-08-03T02:12:13;25.40;72.20
5639;DHT22;2841;44.526;11.360;2022-08-03T02:14:42;25.40;72.40
5639;DHT22;2841;44.526;11.360;2022-08-03T02:17:09;25.30;72.60
5639;DHT22;2841;44.526;11.360;2022-08-03T02:19:39;25.30;72.60
5639;DHT22;2841;44.526;11.360;2022-08-03T02:22:11;25.30;72.60
5639;DHT22;2841;44.526;11.360;2022-08-03T02:24:38;25.20;72.70
5639;DHT22;2841;44.526;11.360;2022-08-03T02:27:12;25.20;72.70
5639;DHT22;2841;44.526;11.360;2022-08-03T02:29:47;25.20;72.80
5639;DHT22;2841;44.526;11.360;2022-08-03T02:32:18;25.20;72.80
5639;DHT22;2841;44.526;11.360;2022-08-03T02:34:50;25.20;72.80
5639;DHT22;2841;44.526;11.360;2022-08-03T02:37:19;25.20;72.80
5639;DHT22;2841;44.526;11.360;2022-08-03T02:39:48;25.20;72.80
5639;DHT22;2841;44.526;11.360;2022-08-03T02:42:20;25.20;72.80
5639;DHT22;2841;44.526;11.360;2022-08-03T02:44:48;25.20;72.80
5639;DHT22;2841;44.526;11.360;2022-08-03T02:47:16;25.20;72.80
5639;DHT22;2841;44.526;11.360;2022-08-03T02:49:48;25.20;72.80
5639;DHT22;2841;44.526;11.360;2022-08-03T02:52:16;25.20;72.80
5639;DHT22;2841;44.526;11.360;2022-08-03T02:54:44;25.20;72.90
5639;DHT22;2841;44.526;11.360;2022-08-03T02:57:13;25.20;72.90
5639;DHT22;2841;44.526;11.360;2022-08-03T02:59:41;25.20;72.90
5639;DHT22;2841;44.526;11.360;2022-08-03T03:02:10;25.20;72.90
5639;DHT22;2841;44.526;11.360;2022-08-03T03:04:38;25.20;73.00
5639;DHT22;2841;44.526;11.360;2022-08-03T03:07:07;25.20;73.70
5639;DHT22;2841;44.526;11.360;2022-08-03T03:09:34;25.20;73.00
5639;DHT22;2841;44.526;11.360;2022-08-03T03:12:02;25.10;73.00
5639;DHT22;2841;44.526;11.360;2022-08-03T03:14:30;25.10;73.00
5639;DHT22;2841;44.526;11.360;2022-08-03T03:16:58;25.10;73.00
5639;DHT22;2841;44.526;11.360;2022-08-03T03:19:25;25.10;73.00
5639;DHT22;2841;44.526;11.360;2022-08-03T03:21:54;25.00;73.10
5639;DHT22;2841;44.526;11.360;2022-08-03T03:24:23;25.00;73.30
5639;DHT22;2841;44.526;11.360;2022-08-03T03:26:50;24.80;73.30
5639;DHT22;2841;44.526;11.360;2022-08-03T03:29:18;24.80;73.70
5639;DHT22;2841;44.526;11.360;2022-08-03T03:31:45;24.60;73.90
5639;DHT22;2841;44.526;11.360;2022-08-03T03:34:12;24.60;74.10
5639;DHT22;2841;44.526;11.360;2022-08-03T03:36:39;24.50;74.20
5639;DHT22;2841;44.526;11.360;2022-08-03T03:39:06;24.50;74.50
5639;DHT22;2841;44.526;11.360;2022-08-03T03:41:35;24.40;74.50
5639;DHT22;2841;44.526;11.360;2022-08-03T03:44:02;24.40;74.70
5639;DHT22;2841;44.526;11.360;2022-08-03T03:46:29;24.40;74.90
5639;DHT22;2841;44.526;11.360;2022-08-03T03:48:57;24.40;75.00
5639;DHT22;2841;44.526;11.360;2022-08-03T03:51:24;24.40;75.10
5639;DHT22;2841;44.526;11.360;2022-08-03T03:53:54;24.40;75.20
5639;DHT22;2841;44.526;11.360;2022-08-03T03:56:22;24.40;75.30
5639;DHT22;2841;44.526;11.360;2022-08-03T03:58:50;24.40;75.40
5639;DHT22;2841;44.526;11.360;2022-08-03T04:01:18;24.40;75.40
5639;DHT22;2841;44.526;11.360;2022-08-03T04:04:07;24.40;75.50
5639;DHT22;2841;44.526;11.360;2022-08-03T04:06:52;24.40;75.60
5639;DHT22;2841;44.526;11.360;2022-08-03T04:09:37;24.30;75.70
5639;DHT22;2841;44.526;11.360;2022-08-03T04:12:25;24.30;75.90
5639;DHT22;2841;44.526;11.360;2022-08-03T04:14:56;24.30;75.80
5639;DHT22;2841;44.526;11.360;2022-08-03T04:17:26;24.30;75.70
5639;DHT22;2841;44.526;11.360;2022-08-03T04:19:54;24.40;75.80
5639;DHT22;2841;44.526;11.360;2022-08-03T04:22:25;24.40;75.70
5639;DHT22;2841;44.526;11.360;2022-08-03T04:24:55;24.50;75.60
5639;DHT22;2841;44.526;11.360;2022-08-03T04:27:28;24.50;75.60
5639;DHT22;2841;44.526;11.360;2022-08-03T04:29:58;24.50;75.60
5639;DHT22;2841;44.526;11.360;2022-08-03T04:32:28;24.40;75.60
5639;DHT22;2841;44.526;11.360;2022-08-03T04:34:56;24.20;75.80
5639;DHT22;2841;44.526;11.360;2022-08-03T04:37:27;24.20;76.20
5639;DHT22;2841;44.526;11.360;2022-08-03T04:40:01;24.10;76.20
5639;DHT22;2841;44.526;11.360;2022-08-03T04:42:29;24.00;76.40
5639;DHT22;2841;44.526;11.360;2022-08-03T04:44:59;23.90;76.60
5639;DHT22;2841;44.526;11.360;2022-08-03T04:47:26;23.90;76.90
5639;DHT22;2841;44.526;11.360;2022-08-03T04:49:53;23.80;77.00
5639;DHT22;2841;44.526;11.360;2022-08-03T04:52:21;23.80;77.30
5639;DHT22;2841;44.526;11.360;2022-08-03T04:54:48;23.80;77.50
5639;DHT22;2841;44.526;11.360;2022-08-03T04:57:15;23.90;77.60
5639;DHT22;2841;44.526;11.360;2022-08-03T04:59:42;23.90;77.70
5639;DHT22;2841;44.526;11.360;2022-08-03T05:02:10;24.00;77.90
5639;DHT22;2841;44.526;11.360;2022-08-03T05:04:37;24.00;78.00
5639;DHT22;2841;44.526;11.360;2022-08-03T05:07:07;24.00;78.00
5639;DHT22;2841;44.526;11.360;2022-08-03T05:09:34;24.00;78.70
5639;DHT22;2841;44.526;11.360;2022-08-03T05:12:03;24.10;78.10
5639;DHT22;2841;44.526;11.360;2022-08-03T05:14:31;24.10;78.10
5639;DHT22;2841;44.526;11.360;2022-08-03T05:16:58;24.20;78.20
5639;DHT22;2841;44.526;11.360;2022-08-03T05:19:26;24.20;78.20
5639;DHT22;2841;44.526;11.360;2022-08-03T05:21:53;24.20;78.20
5639;DHT22;2841;44.526;11.360;2022-08-03T05:24:20;24.30;78.50
5639;DHT22;2841;44.526;11.360;2022-08-03T05:26:48;24.30;78.40
5639;DHT22;2841;44.526;11.360;2022-08-03T05:29:15;24.40;78.30
5639;DHT22;2841;44.526;11.360;2022-08-03T05:31:42;24.40;78.20
5639;DHT22;2841;44.526;11.360;2022-08-03T05:34:09;24.50;78.20
5639;DHT22;2841;44.526;11.360;2022-08-03T05:36:37;24.60;78.10
5639;DHT22;2841;44.526;11.360;2022-08-03T05:39:04;24.70;77.90
5639;DHT22;2841;44.526;11.360;2022-08-03T05:41:31;24.80;77.80
5639;DHT22;2841;44.526;11.360;2022-08-03T05:43:58;25.00;77.70
5639;DHT22;2841;44.526;11.360;2022-08-03T05:46:26;25.10;77.50
5639;DHT22;2841;44.526;11.360;2022-08-03T05:48:53;25.10;77.20
5639;DHT22;2841;44.526;11.360;2022-08-03T05:51:20;25.20;77.10
5639;DHT22;2841;44.526;11.360;2022-08-03T05:53:49;25.30;76.80
5639;DHT22;2841;44.526;11.360;2022-08-03T05:56:16;25.40;76.60
5639;DHT22;2841;44.526;11.360;2022-08-03T05:58:58;25.50;76.40
5639;DHT22;2841;44.526;11.360;2022-08-03T06:01:25;25.60;76.10
5639;DHT22;2841;44.526;11.360;2022-08-03T06:03:52;25.50;75.80
5639;DHT22;2841;44.526;11.360;2022-08-03T06:06:19;25.50;75.70
5639;DHT22;2841;44.526;11.360;2022-08-03T06:08:46;25.50;75.50
5639;DHT22;2841;44.526;11.360;2022-08-03T06:11:15;25.60;75.20
5639;DHT22;2841;44.526;11.360;2022-08-03T06:13:48;25.70;75.00
5639;DHT22;2841;44.526;11.360;2022-08-03T06:16:15;25.80;74.70
5639;DHT22;2841;44.526;11.360;2022-08-03T06:18:42;25.90;74.50
5639;DHT22;2841;44.526;11.360;2022-08-03T06:21:09;26.00;74.10
5639;DHT22;2841;44.526;11.360;2022-08-03T06:23:36;26.00;73.20
5639;DHT22;2841;44.526;11.360;2022-08-03T06:26:03;25.90;73.00
5639;DHT22;2841;44.526;11.360;2022-08-03T06:28:32;25.90;72.70
5639;DHT22;2841;44.526;11.360;2022-08-03T06:30:59;25.90;72.40
5639;DHT22;2841;44.526;11.360;2022-08-03T06:33:25;25.90;71.90
5639;DHT22;2841;44.526;11.360;2022-08-03T06:35:52;25.90;71.80
5639;DHT22;2841;44.526;11.360;2022-08-03T06:38:19;26.00;71.40
5639;DHT22;2841;44.526;11.360;2022-08-03T06:40:46;26.00;71.30
5639;DHT22;2841;44.526;11.360;2022-08-03T06:43:13;26.10;71.10
5639;DHT22;2841;44.526;11.360;2022-08-03T06:45:42;26.10;70.90
5639;DHT22;2841;44.526;11.360;2022-08-03T06:48:10;26.20;70.60
5639;DHT22;2841;44.526;11.360;2022-08-03T06:50:38;26.30;70.40
5639;DHT22;2841;44.526;11.360;2022-08-03T06:53:06;26.30;70.10
5639;DHT22;2841;44.526;11.360;2022-08-03T06:55:33;26.40;69.80
5639;DHT22;2841;44.526;11.360;2022-08-03T06:58:01;26.40;69.60
5639;DHT22;2841;44.526;11.360;2022-08-03T07:00:28;26.40;69.40
5639;DHT22;2841;44.526;11.360;2022-08-03T07:02:56;26.50;69.30
5639;DHT22;2841;44.526;11.360;2022-08-03T07:05:23;26.50;69.10
5639;DHT22;2841;44.526;11.360;2022-08-03T07:07:53;26.70;68.90
5639;DHT22;2841;44.526;11.360;2022-08-03T07:10:21;26.80;68.70
5639;DHT22;2841;44.526;11.360;2022-08-03T07:12:48;26.90;68.40
5639;DHT22;2841;44.526;11.360;2022-08-03T07:15:15;27.00;68.20
5639;DHT22;2841;44.526;11.360;2022-08-03T07:17:42;27.10;67.80
5639;DHT22;2841;44.526;11.360;2022-08-03T07:20:28;27.10;67.50
5639;DHT22;2841;44.526;11.360;2022-08-03T07:22:55;27.20;67.20
5639;DHT22;2841;44.526;11.360;2022-08-03T07:25:22;27.30;67.00
5639;DHT22;2841;44.526;11.360;2022-08-03T07:27:49;27.30;66.60
5639;DHT22;2841;44.526;11.360;2022-08-03T07:30:17;27.40;66.40
5639;DHT22;2841;44.526;11.360;2022-08-03T07:32:44;27.50;66.10
5639;DHT22;2841;44.526;11.360;2022-08-03T07:35:11;27.60;65.50
5639;DHT22;2841;44.526;11.360;2022-08-03T07:37:39;27.70;65.20
5639;DHT22;2841;44.526;11.360;2022-08-03T07:40:07;27.80;64.90
5639;DHT22;2841;44.526;11.360;2022-08-03T07:42:34;27.90;64.70
5639;DHT22;2841;44.526;11.360;2022-08-03T07:45:02;27.90;64.30
5639;DHT22;2841;44.526;11.360;2022-08-03T07:47:29;28.00;64.20
5639;DHT22;2841;44.526;11.360;2022-08-03T07:49:56;28.10;64.00
5639;DHT22;2841;44.526;11.360;2022-08-03T07:52:23;28.10;63.70
5639;DHT22;2841;44.526;11.360;2022-08-03T07:55:11;28.20;63.40
5639;DHT22;2841;44.526;11.360;2022-08-03T07:57:46;28.30;63.40
5639;DHT22;2841;44.526;11.360;2022-08-03T08:00:16;28.40;63.10
5639;DHT22;2841;44.526;11.360;2022-08-03T08:02:43;28.40;62.80
5639;DHT22;2841;44.526;11.360;2022-08-03T08:05:11;28.50;62.70
5639;DHT22;2841;44.526;11.360;2022-08-03T08:07:38;28.60;62.50
5639;DHT22;2841;44.526;11.360;2022-08-03T08:10:06;28.60;62.20
5639;DHT22;2841;44.526;11.360;2022-08-03T08:12:36;28.70;62.00
5639;DHT22;2841;44.526;11.360;2022-08-03T08:15:04;28.70;61.80
5639;DHT22;2841;44.526;11.360;2022-08-03T08:17:40;28.70;61.70
5639;DHT22;2841;44.526;11.360;2022-08-03T08:20:09;28.80;61.60
5639;DHT22;2841;44.526;11.360;2022-08-03T08:22:36;28.90;61.50
5639;DHT22;2841;44.526;11.360;2022-08-03T08:25:03;29.30;61.50
5639;DHT22;2841;44.526;11.360;2022-08-03T08:27:30;29.10;60.90
5639;DHT22;2841;44.526;11.360;2022-08-03T08:29:59;29.10;60.50
5639;DHT22;2841;44.526;11.360;2022-08-03T08:32:25;29.10;60.00
5639;DHT22;2841;44.526;11.360;2022-08-03T08:34:52;29.20;59.80
5639;DHT22;2841;44.526;11.360;2022-08-03T08:37:19;29.30;59.60
5639;DHT22;2841;44.526;11.360;2022-08-03T08:39:46;29.40;59.80
5639;DHT22;2841;44.526;11.360;2022-08-03T08:42:14;29.60;58.80
5639;DHT22;2841;44.526;11.360;2022-08-03T08:44:41;29.60;58.30
5639;DHT22;2841;44.526;11.360;2022-08-03T08:47:10;29.60;57.80
5639;DHT22;2841;44.526;11.360;2022-08-03T08:49:39;29.60;57.20
5639;DHT22;2841;44.526;11.360;2022-08-03T08:52:07;29.70;57.00
5639;DHT22;2841;44.526;11.360;2022-08-03T08:54:35;29.80;56.80
5639;DHT22;2841;44.526;11.360;2022-08-03T08:57:03;29.90;56.30
5639;DHT22;2841;44.526;11.360;2022-08-03T08:59:32;30.10;56.30
5639;DHT22;2841;44.526;11.360;2022-08-03T09:02:00;30.10;55.90
5639;DHT22;2841;44.526;11.360;2022-08-03T09:04:29;30.20;55.60
5639;DHT22;2841;44.526;11.360;2022-08-03T09:06:56;30.20;55.30
5639;DHT22;2841;44.526;11.360;2022-08-03T09:09:23;30.30;55.30
5639;DHT22;2841;44.526;11.360;2022-08-03T09:11:50;30.50;55.00
5639;DHT22;2841;44.526;11.360;2022-08-03T09:14:18;30.60;54.70
5639;DHT22;2841;44.526;11.360;2022-08-03T09:16:55;30.60;54.40
5639;DHT22;2841;44.526;11.360;2022-08-03T09:19:24;30.70;54.00
5639;DHT22;2841;44.526;11.360;2022-08-03T09:22:07;30.70;53.80
5639;DHT22;2841;44.526;11.360;2022-08-03T09:24:35;30.90;53.50
5639;DHT22;2841;44.526;11.360;2022-08-03T09:27:05;30.90;53.30
5639;DHT22;2841;44.526;11.360;2022-08-03T09:29:36;31.10;53.10
5639;DHT22;2841;44.526;11.360;2022-08-03T09:32:04;31.30;52.80
5639;DHT22;2841;44.526;11.360;2022-08-03T09:34:31;31.30;52.60
5639;DHT22;2841;44.526;11.360;2022-08-03T09:36:58;31.40;52.50
5639;DHT22;2841;44.526;11.360;2022-08-03T09:39:27;31.60;52.40
5639;DHT22;2841;44.526;11.360;2022-08-03T09:42:07;31.70;52.10
5639;DHT22;2841;44.526;11.360;2022-08-03T09:44:35;31.90;52.00
5639;DHT22;2841;44.526;11.360;2022-08-03T09:47:03;32.00;51.70
5639;DHT22;2841;44.526;11.360;2022-08-03T09:49:32;32.10;51.30
5639;DHT22;2841;44.526;11.360;2022-08-03T09:52:01;32.20;50.90
5639;DHT22;2841;44.526;11.360;2022-08-03T09:54:38;32.20;50.60
5639;DHT22;2841;44.526;11.360;2022-08-03T09:57:05;32.40;50.30
5639;DHT22;2841;44.526;11.360;2022-08-03T09:59:33;32.50;50.00
5639;DHT22;2841;44.526;11.360;2022-08-03T10:02:00;32.60;49.80
5639;DHT22;2841;44.526;11.360;2022-08-03T10:04:27;32.80;49.50
5639;DHT22;2841;44.526;11.360;2022-08-03T10:07:03;32.90;49.10
5639;DHT22;2841;44.526;11.360;2022-08-03T10:09:30;33.10;48.90
5639;DHT22;2841;44.526;11.360;2022-08-03T10:12:06;33.10;48.70
5639;DHT22;2841;44.526;11.360;2022-08-03T10:14:36;33.10;48.60
5639;DHT22;2841;44.526;11.360;2022-08-03T10:17:03;33.20;48.30
5639;DHT22;2841;44.526;11.360;2022-08-03T10:19:30;33.30;48.70
5639;DHT22;2841;44.526;11.360;2022-08-03T10:22:02;33.30;47.80
5639;DHT22;2841;44.526;11.360;2022-08-03T10:24:33;33.40;47.60
5639;DHT22;2841;44.526;11.360;2022-08-03T10:27:05;33.40;47.50
5639;DHT22;2841;44.526;11.360;2022-08-03T10:29:37;33.50;47.40
5639;DHT22;2841;44.526;11.360;2022-08-03T10:32:09;33.60;47.20
5639;DHT22;2841;44.526;11.360;2022-08-03T10:34:41;33.80;46.80
5639;DHT22;2841;44.526;11.360;2022-08-03T10:37:10;33.80;46.50
5639;DHT22;2841;44.526;11.360;2022-08-03T10:39:38;33.70;46.40
5639;DHT22;2841;44.526;11.360;2022-08-03T10:42:20;33.80;46.50
5639;DHT22;2841;44.526;11.360;2022-08-03T10:44:54;34.00;46.20
5639;DHT22;2841;44.526;11.360;2022-08-03T10:47:22;34.10;45.90
5639;DHT22;2841;44.526;11.360;2022-08-03T10:49:49;34.10;45.50
5639;DHT22;2841;44.526;11.360;2022-08-03T10:52:17;34.00;45.30
5639;DHT22;2841;44.526;11.360;2022-08-03T10:54:44;34.10;45.30
5639;DHT22;2841;44.526;11.360;2022-08-03T10:57:44;34.40;45.00
5639;DHT22;2841;44.526;11.360;2022-08-03T11:00:12;34.70;44.80
5639;DHT22;2841;44.526;11.360;2022-08-03T11:03:04;35.00;44.60
5639;DHT22;2841;44.526;11.360;2022-08-03T11:06:13;35.20;44.10
5639;DHT22;2841;44.526;11.360;2022-08-03T11:08:28;35.30;43.90
5639;DHT22;2841;44.526;11.360;2022-08-03T11:10:57;35.30;43.60
5639;DHT22;2841;44.526;11.360;2022-08-03T11:13:27;35.30;43.40
5639;DHT22;2841;44.526;11.360;2022-08-03T11:15:59;35.30;43.20
5639;DHT22;2841;44.526;11.360;2022-08-03T11:18:26;35.20;43.10
5639;DHT22;2841;44.526;11.360;2022-08-03T11:20:54;35.40;42.80
5639;DHT22;2841;44.526;11.360;2022-08-03T11:23:40;35.50;42.60
5639;DHT22;2841;44.526;11.360;2022-08-03T11:26:12;35.80;42.40
5639;DHT22;2841;44.526;11.360;2022-08-03T11:28:41;35.80;42.10
5639;DHT22;2841;44.526;11.360;2022-08-03T11:34:21;35.80;41.80
5639;DHT22;2841;44.526;11.360;2022-08-03T11:37:17;35.90;41.60
5639;DHT22;2841;44.526;11.360;2022-08-03T11:39:48;35.80;41.30
5639;DHT22;2841;44.526;11.360;2022-08-03T11:42:37;36.00;41.30
5639;DHT22;2841;44.526;11.360;2022-08-03T11:45:07;36.40;41.00
5639;DHT22;2841;44.526;11.360;2022-08-03T11:47:37;36.50;40.50
5639;DHT22;2841;44.526;11.360;2022-08-03T11:50:05;36.60;40.20
5639;DHT22;2841;44.526;11.360;2022-08-03T11:52:36;36.60;40.10
5639;DHT22;2841;44.526;11.360;2022-08-03T11:55:08;36.60;40.00
5639;DHT22;2841;44.526;11.360;2022-08-03T11:57:36;36.80;39.90
5639;DHT22;2841;44.526;11.360;2022-08-03T12:00:23;36.90;39.70
5639;DHT22;2841;44.526;11.360;2022-08-03T12:03:02;37.10;39.40
5639;DHT22;2841;44.526;11.360;2022-08-03T12:05:46;37.10;39.40
5639;DHT22;2841;44.526;11.360;2022-08-03T12:08:15;37.50;39.10
5639;DHT22;2841;44.526;11.360;2022-08-03T12:10:47;37.80;38.80
5639;DHT22;2841;44.526;11.360;2022-08-03T12:13:15;38.00;38.60
5639;DHT22;2841;44.526;11.360;2022-08-03T12:15:49;38.20;38.30
5639;DHT22;2841;44.526;11.360;2022-08-03T12:18:17;38.40;38.00
5639;DHT22;2841;44.526;11.360;2022-08-03T12:20:46;38.40;37.90
5639;DHT22;2841;44.526;11.360;2022-08-03T12:23:13;38.40;37.70
5639;DHT22;2841;44.526;11.360;2022-08-03T12:25:41;38.40;37.40
5639;DHT22;2841;44.526;11.360;2022-08-03T12:28:11;38.20;37.10
5639;DHT22;2841;44.526;11.360;2022-08-03T12:30:50;38.20;37.30
5639;DHT22;2841;44.526;11.360;2022-08-03T12:33:21;38.30;37.00
5639;DHT22;2841;44.526;11.360;2022-08-03T12:36:00;38.60;36.70
5639;DHT22;2841;44.526;11.360;2022-08-03T12:38:29;38.80;36.60
5639;DHT22;2841;44.526;11.360;2022-08-03T12:41:02;38.90;36.40
5639;DHT22;2841;44.526;11.360;2022-08-03T12:43:29;38.90;36.30
5639;DHT22;2841;44.526;11.360;2022-08-03T12:46:12;39.00;36.30
5639;DHT22;2841;44.526;11.360;2022-08-03T12:48:59;39.10;36.10
5639;DHT22;2841;44.526;11.360;2022-08-03T12:51:27;39.20;36.10
5639;DHT22;2841;44.526;11.360;2022-08-03T12:53:54;39.20;36.10
5639;DHT22;2841;44.526;11.360;2022-08-03T12:56:21;39.10;36.30
5639;DHT22;2841;44.526;11.360;2022-08-03T12:58:49;38.90;36.60
5639;DHT22;2841;44.526;11.360;2022-08-03T13:01:19;39.00;36.70
5639;DHT22;2841;44.526;11.360;2022-08-03T13:03:50;39.10;36.70
5639;DHT22;2841;44.526;11.360;2022-08-03T13:06:19;39.10;36.60
5639;DHT22;2841;44.526;11.360;2022-08-03T13:09:02;39.10;36.70
5639;DHT22;2841;44.526;11.360;2022-08-03T13:11:29;39.10;36.60
5639;DHT22;2841;44.526;11.360;2022-08-03T13:13:56;39.00;36.70
5639;DHT22;2841;44.526;11.360;2022-08-03T13:16:25;38.90;36.70
5639;DHT22;2841;44.526;11.360;2022-08-03T13:18:51;38.90;37.50
5639;DHT22;2841;44.526;11.360;2022-08-03T13:21:19;38.80;37.10
5639;DHT22;2841;44.526;11.360;2022-08-03T13:23:46;38.60;37.30
5639;DHT22;2841;44.526;11.360;2022-08-03T13:28:55;38.80;37.50
5639;DHT22;2841;44.526;11.360;2022-08-03T13:31:22;39.10;37.20
5639;DHT22;2841;44.526;11.360;2022-08-03T13:33:50;39.40;37.20
5639;DHT22;2841;44.526;11.360;2022-08-03T13:36:17;39.60;37.10
5639;DHT22;2841;44.526;11.360;2022-08-03T13:38:45;39.70;37.00
5639;DHT22;2841;44.526;11.360;2022-08-03T13:41:11;39.80;37.00
5639;DHT22;2841;44.526;11.360;2022-08-03T13:43:38;39.70;37.20
5639;DHT22;2841;44.526;11.360;2022-08-03T13:46:05;39.60;37.20
5639;DHT22;2841;44.526;11.360;2022-08-03T13:48:32;39.50;37.40
5639;DHT22;2841;44.526;11.360;2022-08-03T13:51:01;39.50;37.50
5639;DHT22;2841;44.526;11.360;2022-08-03T13:53:28;39.30;37.70
5639;DHT22;2841;44.526;11.360;2022-08-03T13:55:55;39.30;37.80
5639;DHT22;2841;44.526;11.360;2022-08-03T13:58:21;39.30;37.70
5639;DHT22;2841;44.526;11.360;2022-08-03T14:00:49;39.50;37.60
5639;DHT22;2841;44.526;11.360;2022-08-03T14:03:16;39.60;37.30
5639;DHT22;2841;44.526;11.360;2022-08-03T14:05:43;39.70;37.20
5639;DHT22;2841;44.526;11.360;2022-08-03T14:08:11;39.90;37.00
5639;DHT22;2841;44.526;11.360;2022-08-03T14:10:40;39.70;37.00
5639;DHT22;2841;44.526;11.360;2022-08-03T14:13:07;39.90;37.00
5639;DHT22;2841;44.526;11.360;2022-08-03T14:15:34;40.10;36.80
5639;DHT22;2841;44.526;11.360;2022-08-03T14:18:01;40.20;36.50
5639;DHT22;2841;44.526;11.360;2022-08-03T14:20:29;40.30;36.30
5639;DHT22;2841;44.526;11.360;2022-08-03T14:22:56;40.40;35.90
5639;DHT22;2841;44.526;11.360;2022-08-03T14:25:24;40.50;35.80
5639;DHT22;2841;44.526;11.360;2022-08-03T14:27:51;40.70;35.40
5639;DHT22;2841;44.526;11.360;2022-08-03T14:30:19;40.70;35.10
5639;DHT22;2841;44.526;11.360;2022-08-03T14:32:45;40.90;35.00
5639;DHT22;2841;44.526;11.360;2022-08-03T14:35:12;41.10;34.70
5639;DHT22;2841;44.526;11.360;2022-08-03T14:37:39;41.10;34.50
5639;DHT22;2841;44.526;11.360;2022-08-03T14:40:07;41.20;34.50
5639;DHT22;2841;44.526;11.360;2022-08-03T14:42:36;41.20;34.50
5639;DHT22;2841;44.526;11.360;2022-08-03T14:45:03;41.40;34.30
5639;DHT22;2841;44.526;11.360;2022-08-03T14:47:30;41.60;34.00
5639;DHT22;2841;44.526;11.360;2022-08-03T14:49:58;41.70;33.60
5639;DHT22;2841;44.526;11.360;2022-08-03T14:52:28;41.90;33.20
5639;DHT22;2841;44.526;11.360;2022-08-03T14:54:55;41.40;33.00
5639;DHT22;2841;44.526;11.360;2022-08-03T14:57:22;41.30;33.20
5639;DHT22;2841;44.526;11.360;2022-08-03T14:59:51;41.40;33.20
5639;DHT22;2841;44.526;11.360;2022-08-03T15:02:18;41.60;33.20
5639;DHT22;2841;44.526;11.360;2022-08-03T15:04:45;41.80;33.20
5639;DHT22;2841;44.526;11.360;2022-08-03T15:07:12;41.90;33.20
5639;DHT22;2841;44.526;11.360;2022-08-03T15:09:39;42.10;33.20
5639;DHT22;2841;44.526;11.360;2022-08-03T15:12:06;42.10;33.20
5639;DHT22;2841;44.526;11.360;2022-08-03T15:14:33;41.90;33.30
5639;DHT22;2841;44.526;11.360;2022-08-03T15:17:02;41.90;33.50
5639;DHT22;2841;44.526;11.360;2022-08-03T15:19:29;42.10;33.40
5639;DHT22;2841;44.526;11.360;2022-08-03T15:21:56;42.40;33.20
5639;DHT22;2841;44.526;11.360;2022-08-03T15:24:23;42.50;33.00
5639;DHT22;2841;44.526;11.360;2022-08-03T15:26:50;42.50;33.00
5639;DHT22;2841;44.526;11.360;2022-08-03T15:29:17;42.30;33.20
5639;DHT22;2841;44.526;11.360;2022-08-03T15:31:44;41.40;33.70
5639;DHT22;2841;44.526;11.360;2022-08-03T15:34:13;40.20;34.80
5639;DHT22;2841;44.526;11.360;2022-08-03T15:36:40;39.60;35.70
5639;DHT22;2841;44.526;11.360;2022-08-03T15:39:07;39.80;35.50
5639;DHT22;2841;44.526;11.360;2022-08-03T15:41:33;39.60;35.70
5639;DHT22;2841;44.526;11.360;2022-08-03T15:44:01;39.90;35.50
5639;DHT22;2841;44.526;11.360;2022-08-03T15:46:30;40.60;35.10
5639;DHT22;2841;44.526;11.360;2022-08-03T15:48:57;41.20;34.50
5639;DHT22;2841;44.526;11.360;2022-08-03T15:51:25;41.70;34.00
5639;DHT22;2841;44.526;11.360;2022-08-03T15:53:52;42.00;33.70
5639;DHT22;2841;44.526;11.360;2022-08-03T15:56:20;42.20;33.60
5639;DHT22;2841;44.526;11.360;2022-08-03T15:58:47;42.20;33.50
5639;DHT22;2841;44.526;11.360;2022-08-03T16:01:14;42.20;33.50
5639;DHT22;2841;44.526;11.360;2022-08-03T16:03:41;42.20;33.50
5639;DHT22;2841;44.526;11.360;2022-08-03T16:06:08;42.30;33.50